Time;durP1;ratioP1;P1;durP2;ratioP2;P2;SDS_P1;SDS_P2;PMS_P1;PMS_P2;Temp;Humidity;BMP_temperature;BMP_pressure;BME280_temperature;BME280_humidity;BME280_pressure;Samples;Min_cycle;Max_cycle;Signal;HPM_P1;HPM_P2
2023/01/15 00:00:57;;;;;;;47.67;10.77;;;;;;;1.12;100.00;99183.22;5159384;27;20369;-73
2023/01/15 00:03:23;;;;;;;34.47;12.35;;;;;;;1.36;100.00;99183.78;5159461;27;20047;-64
2023/01/15 00:05:50;;;;;;;125.32;14.68;;;;;;;1.36;100.00;99174.88;5159538;27;20372;-71
2023/01/15 00:08:16;;;;;;;48.40;12.43;;;;;;;1.17;100.00;99170.41;5159260;27;20106;-69
2023/01/15 00:10:42;;;;;;;67.32;12.13;;;;;;;1.46;100.00;99157.66;5159358;27;20110;-69
2023/01/15 00:13:08;;;;;;;55.80;12.30;;;;;;;1.30;100.00;99174.22;5159266;27;20058;-69
2023/01/15 00:15:35;;;;;;;103.72;12.10;;;;;;;1.13;100.00;99165.91;5159157;27;20061;-68
2023/01/15 00:18:01;;;;;;;63.30;11.48;;;;;;;1.01;100.00;99154.84;5159107;27;20054;-65
2023/01/15 00:20:28;;;;;;;28.27;12.20;;;;;;;1.42;100.00;99149.34;5159105;27;20404;-72
2023/01/15 00:22:54;;;;;;;83.95;13.50;;;;;;;1.30;100.00;99155.28;5159194;27;20407;-64
2023/01/15 00:28:05;;;;;;;47.50;11.32;;;;;;;1.14;100.00;99154.03;5159348;27;20438;-64
2023/01/15 00:30:31;;;;;;;37.38;10.77;;;;;;;1.21;100.00;99151.72;5158800;27;20066;-65
2023/01/15 00:32:58;;;;;;;188.60;16.65;;;;;;;1.51;100.00;99147.53;5159295;27;20046;-72
2023/01/15 00:35:24;;;;;;;111.25;15.18;;;;;;;1.47;100.00;99146.56;5158949;27;20046;-73
2023/01/15 00:37:51;;;;;;;47.28;10.93;;;;;;;1.16;100.00;99157.19;5159346;27;20047;-69
2023/01/15 00:40:19;;;;;;;68.45;11.10;;;;;;;1.13;100.00;99141.59;5158698;27;20195;-74
2023/01/15 00:42:45;;;;;;;38.08;12.32;;;;;;;1.20;100.00;99149.28;5158674;27;20062;-66
2023/01/15 00:45:12;;;;;;;94.07;12.27;;;;;;;1.35;100.00;99147.06;5159038;27;20047;-72
2023/01/15 00:47:40;;;;;;;42.35;12.38;;;;;;;1.40;100.00;99143.47;5157783;27;20054;-69
2023/01/15 00:50:13;;;;;;;64.25;13.75;;;;;;;1.24;100.00;99150.31;5158647;27;20051;-73
2023/01/15 00:52:40;;;;;;;64.32;12.48;;;;;;;1.57;100.00;99140.13;5158562;27;20450;-68
2023/01/15 00:55:08;;;;;;;35.42;12.02;;;;;;;1.54;100.00;99149.63;5158932;27;20046;-65
2023/01/15 00:57:34;;;;;;;89.18;14.73;;;;;;;1.26;100.00;99154.28;5158443;27;20046;-66
2023/01/15 01:00:00;;;;;;;99.07;13.15;;;;;;;1.12;100.00;99156.22;5158830;27;20071;-71
2023/01/15 01:02:27;;;;;;;47.35;12.25;;;;;;;1.12;100.00;99164.31;5158378;27;20046;-66
2023/01/15 01:04:53;;;;;;;59.05;14.68;;;;;;;1.30;100.00;99151.78;5158864;27;20047;-71
2023/01/15 01:07:19;;;;;;;48.17;11.75;;;;;;;1.29;100.00;99137.47;5158258;27;20141;-66
2023/01/15 01:09:45;;;;;;;59.53;12.57;;;;;;;1.16;100.00;99135.59;5158335;27;20058;-73
2023/01/15 01:12:12;;;;;;;59.53;11.60;;;;;;;0.95;100.00;99121.75;5158556;27;20114;-66
2023/01/15 01:14:39;;;;;;;55.60;12.20;;;;;;;1.20;100.00;99117.72;5158517;27;20099;-73
2023/01/15 01:17:05;;;;;;;50.28;13.02;;;;;;;1.17;100.00;99110.22;5158355;27;20133;-69
2023/01/15 01:19:32;;;;;;;57.17;12.68;;;;;;;1.04;100.00;99111.84;5158377;27;20141;-66
2023/01/15 01:21:58;;;;;;;62.58;13.50;;;;;;;1.12;100.00;99103.00;5158477;27;20050;-72
2023/01/15 01:24:25;;;;;;;34.47;13.25;;;;;;;1.18;100.00;99109.09;5158119;27;20061;-71
2023/01/15 01:26:52;;;;;;;36.33;11.88;;;;;;;1.10;100.00;99101.72;5158382;27;20046;-72
2023/01/15 01:29:21;;;;;;;44.92;11.68;;;;;;;1.05;100.00;99099.94;5157922;27;20042;-71
2023/01/15 01:31:49;;;;;;;29.40;10.02;;;;;;;0.99;100.00;99094.94;5158395;27;20057;-64
2023/01/15 01:34:16;;;;;;;67.65;12.18;;;;;;;1.02;100.00;99083.53;5157958;27;20054;-69
2023/01/15 01:36:43;;;;;;;35.42;11.15;;;;;;;0.97;100.00;99070.13;5158448;27;20053;-64
2023/01/15 01:39:13;;;;;;;58.42;12.85;;;;;;;1.25;100.00;99065.47;5158092;27;20054;-69
2023/01/15 01:41:39;;;;;;;74.13;10.82;;;;;;;1.08;100.00;99071.53;5157856;27;20050;-72
2023/01/15 01:44:08;;;;;;;33.72;10.85;;;;;;;1.30;100.00;99062.66;5158096;27;20056;-71
2023/01/15 01:46:36;;;;;;;34.08;9.07;;;;;;;0.98;100.00;99063.66;5157964;27;20046;-73
2023/01/15 01:49:05;;;;;;;46.67;10.38;;;;;;;0.99;100.00;99049.06;5157670;27;20042;-66
2023/01/15 01:51:37;;;;;;;35.17;10.75;;;;;;;1.07;100.00;99045.66;5157804;27;20046;-69
2023/01/15 01:54:03;;;;;;;42.47;9.48;;;;;;;1.04;100.00;99043.56;5158241;27;20043;-71
2023/01/15 01:56:33;;;;;;;48.85;10.52;;;;;;;1.26;100.00;99040.06;5157722;27;20054;-72
2023/01/15 01:59:02;;;;;;;33.80;10.82;;;;;;;1.14;100.00;99032.53;5160603;27;20464;-68
2023/01/15 02:01:28;;;;;;;35.60;9.07;;;;;;;1.19;100.00;99035.09;5161268;27;20047;-66
2023/01/15 02:03:56;;;;;;;31.73;8.85;;;;;;;1.05;100.00;99026.25;5161312;27;20119;-68
2023/01/15 02:06:25;;;;;;;46.85;10.75;;;;;;;1.18;100.00;99025.41;5161577;27;20051;-67
2023/01/15 02:08:51;;;;;;;42.00;10.00;;;;;;;1.28;100.00;99029.75;5161351;27;20050;-72
2023/01/15 02:11:21;;;;;;;25.70;7.38;;;;;;;0.93;100.00;99014.09;5161352;27;20053;-73
2023/01/15 02:13:57;;;;;;;35.72;10.40;;;;;;;1.21;100.00;99018.59;5161383;27;20051;-67
2023/01/15 02:16:29;;;;;;;54.20;9.95;;;;;;;1.08;100.00;99007.53;5161428;27;20051;-72
2023/01/15 02:19:01;;;;;;;21.67;8.23;;;;;;;1.02;100.00;98999.84;5161040;27;20051;-71
2023/01/15 02:21:47;;;;;;;19.90;7.57;;;;;;;1.01;100.00;98995.56;5161503;27;20388;-73
2023/01/15 02:24:21;;;;;;;31.15;9.02;;;;;;;1.10;100.00;98981.03;5161024;27;20046;-71
2023/01/15 02:27:12;;;;;;;20.08;8.43;;;;;;;1.11;100.00;98985.31;5161165;27;20051;-65
2023/01/15 02:29:49;;;;;;;31.33;8.63;;;;;;;0.94;100.00;98986.00;5161062;27;20420;-72
2023/01/15 02:32:23;;;;;;;29.75;8.15;;;;;;;1.10;100.00;98982.91;5160841;27;20051;-72
2023/01/15 02:34:54;;;;;;;37.78;9.93;;;;;;;1.05;100.00;98972.25;5161244;27;20060;-72
2023/01/15 02:37:25;;;;;;;21.55;7.65;;;;;;;1.12;100.00;98970.72;5160696;27;20064;-69
2023/01/15 02:39:53;;;;;;;34.40;8.00;;;;;;;1.19;100.00;98962.19;5160730;27;20102;-65
2023/01/15 02:42:22;;;;;;;47.42;10.30;;;;;;;1.07;100.00;98964.66;5160751;27;20046;-70
2023/01/15 02:44:51;;;;;;;24.05;8.18;;;;;;;0.98;100.00;98967.28;5160606;27;20109;-66
2023/01/15 02:47:23;;;;;;;31.80;9.60;;;;;;;1.17;100.00;98964.41;5160987;27;20049;-70
2023/01/15 02:49:52;;;;;;;22.80;7.78;;;;;;;1.09;100.00;98952.44;5160654;27;20072;-73
2023/01/15 02:52:23;;;;;;;23.55;7.00;;;;;;;1.10;100.00;98948.63;5160980;27;20047;-71
2023/01/15 02:54:55;;;;;;;38.22;9.52;;;;;;;1.14;100.00;98946.91;5160561;27;20057;-73
2023/01/15 02:57:26;;;;;;;16.85;7.93;;;;;;;1.20;100.00;98944.91;5160982;27;20046;-67
2023/01/15 02:59:56;;;;;;;13.93;7.18;;;;;;;1.06;100.00;98936.03;5160320;27;20054;-65
2023/01/15 03:02:27;;;;;;;22.45;5.35;;;;;;;0.87;100.00;98936.25;5160617;27;20047;-70
2023/01/15 03:05:00;;;;;;;23.95;8.80;;;;;;;0.92;100.00;98930.72;5160464;27;20047;-73
2023/01/15 03:07:31;;;;;;;18.80;8.82;;;;;;;1.26;100.00;98935.53;5160334;27;20403;-68
2023/01/15 03:09:58;;;;;;;24.23;7.53;;;;;;;0.93;100.00;98940.41;5159633;27;20073;-68
2023/01/15 03:12:31;;;;;;;27.48;7.22;;;;;;;1.01;100.00;98941.59;5160444;27;20069;-68
2023/01/15 03:15:06;;;;;;;16.38;6.20;;;;;;;0.91;100.00;98939.91;5160554;27;20043;-65
2023/01/15 03:17:36;;;;;;;14.38;7.63;;;;;;;1.01;100.00;98936.19;5160141;27;20066;-70
2023/01/15 03:20:09;;;;;;;14.52;6.68;;;;;;;1.00;100.00;98937.25;5160652;27;20131;-68
2023/01/15 03:22:39;;;;;;;22.77;6.57;;;;;;;0.80;100.00;98935.84;5160436;27;20347;-68
2023/01/15 03:25:09;;;;;;;28.73;7.88;;;;;;;0.87;100.00;98939.75;5160078;27;20054;-69
2023/01/15 03:27:37;;;;;;;29.02;6.78;;;;;;;0.83;100.00;98941.44;5160313;27;20047;-65
2023/01/15 03:30:07;;;;;;;21.95;8.15;;;;;;;0.91;100.00;98939.91;5159957;27;20057;-68
2023/01/15 03:32:33;;;;;;;24.17;8.55;;;;;;;1.02;100.00;98941.25;5160177;27;20046;-70
2023/01/15 03:35:02;;;;;;;18.15;6.72;;;;;;;0.88;100.00;98944.03;5159846;27;20430;-65
2023/01/15 03:37:29;;;;;;;22.88;7.22;;;;;;;0.80;100.00;98950.16;5160260;27;20331;-69
2023/01/15 03:39:57;;;;;;;15.10;7.32;;;;;;;1.13;100.00;98945.31;5159810;27;20059;-69
2023/01/15 03:42:34;;;;;;;20.17;6.43;;;;;;;0.96;100.00;98950.59;5160267;27;20106;-64
2023/01/15 03:45:06;;;;;;;16.13;7.30;;;;;;;0.98;100.00;98945.69;5159605;27;20118;-73
2023/01/15 03:47:43;;;;;;;12.35;5.63;;;;;;;0.87;100.00;98947.84;5159925;27;20087;-71
2023/01/15 03:50:18;;;;;;;23.00;7.95;;;;;;;0.85;100.00;98952.72;5159693;27;20055;-73
2023/01/15 03:52:47;;;;;;;22.23;8.32;;;;;;;0.85;100.00;98951.94;5159776;27;20069;-65
2023/01/15 03:55:17;;;;;;;24.83;8.23;;;;;;;1.01;100.00;98941.59;5160016;27;20337;-69
2023/01/15 03:57:49;;;;;;;22.60;8.30;;;;;;;0.83;100.00;98956.81;5159596;27;20047;-66
2023/01/15 04:00:22;;;;;;;24.33;7.38;;;;;;;0.85;100.00;98952.72;5159876;27;20407;-71
2023/01/15 04:02:51;;;;;;;17.45;7.32;;;;;;;0.78;100.00;98957.75;5159296;27;20047;-70
2023/01/15 04:05:18;;;;;;;25.23;8.68;;;;;;;0.66;100.00;98946.69;5159325;27;20057;-73
2023/01/15 04:07:46;;;;;;;23.17;7.15;;;;;;;0.76;100.00;98945.66;5159648;27;20130;-66
2023/01/15 04:10:12;;;;;;;33.40;7.85;;;;;;;0.73;100.00;98943.56;5159180;27;20055;-66
2023/01/15 04:12:38;;;;;;;15.60;6.35;;;;;;;0.76;100.00;98940.25;5159346;27;20047;-69
2023/01/15 04:15:06;;;;;;;16.70;6.68;;;;;;;0.72;100.00;98950.09;5159387;27;20065;-68
2023/01/15 04:17:33;;;;;;;13.77;7.18;;;;;;;0.61;100.00;98939.53;5159498;27;20053;-71
2023/01/15 04:19:59;;;;;;;12.63;5.82;;;;;;;0.67;100.00;98938.31;5159070;27;20055;-64
2023/01/15 04:22:25;;;;;;;18.58;8.73;;;;;;;0.71;100.00;98930.41;5159292;27;20086;-72
2023/01/15 04:24:53;;;;;;;20.90;9.00;;;;;;;0.69;100.00;98924.50;5159117;27;20111;-65
2023/01/15 04:27:20;;;;;;;22.38;8.85;;;;;;;0.74;100.00;98910.13;5159409;27;20096;-66
2023/01/15 04:29:46;;;;;;;19.05;7.82;;;;;;;0.67;100.00;98929.41;5158871;27;20050;-71
2023/01/15 04:32:12;;;;;;;22.75;7.60;;;;;;;0.51;100.00;98910.09;5159294;27;20064;-64
2023/01/15 04:34:39;;;;;;;33.92;8.50;;;;;;;0.68;100.00;98912.13;5158668;27;20050;-73
2023/01/15 04:37:05;;;;;;;35.60;9.50;;;;;;;0.60;100.00;98919.06;5158601;27;20050;-66
2023/01/15 04:39:32;;;;;;;19.10;7.05;;;;;;;0.55;100.00;98929.16;5158769;27;20046;-72
2023/01/15 04:44:43;;;;;;;25.48;8.90;;;;;;;0.70;100.00;98923.41;5159226;27;20057;-66
2023/01/15 04:47:09;;;;;;;25.20;9.18;;;;;;;0.72;100.00;98933.88;5158818;27;20056;-72
2023/01/15 04:49:35;;;;;;;26.67;9.07;;;;;;;0.68;100.00;98945.28;5159027;27;20115;-65
2023/01/15 04:52:02;;;;;;;28.58;10.60;;;;;;;0.77;100.00;98939.97;5158599;27;20479;-69
2023/01/15 04:54:28;;;;;;;27.42;10.82;;;;;;;0.91;100.00;98942.63;5158509;27;20043;-65
2023/01/15 04:56:55;;;;;;;17.00;6.78;;;;;;;0.66;100.00;98960.97;5158392;27;20477;-69
2023/01/15 04:59:23;;;;;;;19.02;6.47;;;;;;;0.53;100.00;98951.00;5158733;27;20061;-68
2023/01/15 05:01:49;;;;;;;18.83;8.68;;;;;;;0.61;100.00;98949.53;5158706;27;20058;-64
2023/01/15 05:04:16;;;;;;;23.77;8.55;;;;;;;0.82;100.00;98933.66;5158588;27;20065;-64
2023/01/15 05:06:42;;;;;;;27.02;8.57;;;;;;;0.80;100.00;98925.88;5158768;27;20051;-65
2023/01/15 05:09:10;;;;;;;49.40;10.18;;;;;;;0.66;100.00;98920.50;5158241;27;20061;-69
2023/01/15 05:11:37;;;;;;;18.80;8.30;;;;;;;0.77;100.00;98906.78;5158652;27;20103;-70
2023/01/15 05:14:03;;;;;;;30.35;10.30;;;;;;;0.97;100.00;98900.91;5157911;27;20338;-64
2023/01/15 05:16:30;;;;;;;20.50;7.53;;;;;;;0.57;100.00;98902.69;5158023;27;20399;-65
2023/01/15 05:18:59;;;;;;;19.45;7.30;;;;;;;0.71;100.00;98887.22;5158557;27;20062;-69
2023/01/15 05:21:27;;;;;;;23.17;8.40;;;;;;;0.77;100.00;98875.22;5158550;27;20062;-70
2023/01/15 05:23:56;;;;;;;25.45;9.50;;;;;;;0.65;100.00;98883.84;5158074;27;20051;-70
2023/01/15 05:26:23;;;;;;;29.92;7.10;;;;;;;0.59;100.00;98884.28;5158042;27;20057;-66
2023/01/15 05:28:52;;;;;;;24.08;8.23;;;;;;;0.85;100.00;98879.88;5158069;27;20050;-70
2023/01/15 05:31:19;;;;;;;23.10;7.78;;;;;;;0.92;100.00;98869.44;5157888;27;20070;-73
2023/01/15 05:33:46;;;;;;;16.48;7.88;;;;;;;0.68;100.00;98874.34;5157409;27;20467;-66
2023/01/15 05:36:15;;;;;;;29.15;8.07;;;;;;;0.63;100.00;98864.50;5158130;27;20050;-65
2023/01/15 05:38:42;;;;;;;19.40;7.78;;;;;;;0.84;100.00;98859.38;5158217;27;20427;-64
2023/01/15 05:43:53;;;;;;;22.08;8.77;;;;;;;0.76;100.00;98860.09;5157370;27;20137;-66
2023/01/15 05:46:20;;;;;;;26.70;6.60;;;;;;;0.59;100.00;98854.59;5157808;27;20053;-66
2023/01/15 05:48:47;;;;;;;37.60;9.15;;;;;;;0.61;100.00;98845.09;5158257;27;20061;-69
2023/01/15 05:51:13;;;;;;;20.73;8.10;;;;;;;0.63;100.00;98842.09;5157676;27;20051;-65
2023/01/15 05:53:39;;;;;;;28.38;7.05;;;;;;;0.61;100.00;98844.31;5157631;27;20065;-71
2023/01/15 05:56:07;;;;;;;20.15;6.90;;;;;;;0.61;100.00;98841.63;5157980;27;20311;-66
2023/01/15 05:58:33;;;;;;;37.40;5.80;;;;;;;0.52;100.00;98838.03;5157605;27;20066;-70
2023/01/15 06:01:05;;;;;;;61.78;8.38;;;;;;;0.76;100.00;98838.53;5157840;27;20051;-68
2023/01/15 06:03:31;;;;;;;20.83;7.20;;;;;;;0.55;100.00;98835.53;5157535;27;20066;-68
2023/01/15 06:05:57;;;;;;;13.73;7.68;;;;;;;0.54;100.00;98831.25;5157873;27;20043;-72
2023/01/15 06:08:23;;;;;;;16.92;6.35;;;;;;;0.53;100.00;98839.63;5157505;27;20091;-65
2023/01/15 06:10:50;;;;;;;33.40;7.45;;;;;;;0.49;100.00;98825.16;5157717;27;20403;-71
2023/01/15 06:13:17;;;;;;;31.30;7.85;;;;;;;0.48;100.00;98821.69;5157461;27;20061;-68
2023/01/15 06:15:43;;;;;;;22.50;6.80;;;;;;;0.49;100.00;98817.88;5157923;27;20050;-72
2023/01/15 06:18:11;;;;;;;25.25;8.90;;;;;;;0.59;100.00;98790.66;5157644;27;20073;-68
2023/01/15 06:20:38;;;;;;;25.50;6.47;;;;;;;0.45;100.00;98790.72;5157596;27;20061;-66
2023/01/15 06:23:04;;;;;;;45.72;7.03;;;;;;;0.52;100.00;98776.81;5157482;27;20053;-65
2023/01/15 06:25:34;;;;;;;27.40;7.30;;;;;;;0.40;100.00;98792.75;5157385;27;20051;-68
2023/01/15 06:28:00;;;;;;;25.75;7.72;;;;;;;0.35;100.00;98782.09;5157643;27;20082;-65
2023/01/15 06:30:26;;;;;;;32.70;6.50;;;;;;;0.27;100.00;98789.03;5157174;27;20062;-65
2023/01/15 06:32:53;;;;;;;15.52;6.80;;;;;;;0.31;100.00;98792.69;5157685;27;20047;-71
2023/01/15 06:35:20;;;;;;;14.43;7.60;;;;;;;0.29;100.00;98786.00;5157306;27;20429;-71
2023/01/15 06:37:48;;;;;;;18.48;6.38;;;;;;;0.30;100.00;98792.97;5157714;27;20043;-67
2023/01/15 06:40:15;;;;;;;30.52;6.70;;;;;;;0.31;100.00;98776.50;5157339;27;20055;-66
2023/01/15 06:48:10;;;;;;;13.00;6.55;;;;;;;0.28;100.00;98760.94;5160671;27;20123;-72
2023/01/15 06:50:37;;;;;;;4.60;3.13;;;;;;;0.11;100.00;98763.53;5160566;27;20061;-65
2023/01/15 06:53:03;;;;;;;17.90;6.95;;;;;;;0.23;100.00;98756.47;5160506;27;20441;-70
2023/01/15 06:55:29;;;;;;;8.32;4.70;;;;;;;0.19;100.00;98771.66;5160778;27;20046;-69
2023/01/15 06:57:56;;;;;;;10.63;5.32;;;;;;;0.32;100.00;98766.53;5160497;27;20047;-68
2023/01/15 07:00:22;;;;;;;12.57;5.03;;;;;;;0.21;100.00;98772.16;5160847;27;20331;-68
2023/01/15 07:02:48;;;;;;;7.90;5.38;;;;;;;0.29;100.00;98770.63;5160277;27;20061;-71
2023/01/15 07:05:15;;;;;;;15.93;6.03;;;;;;;0.27;100.00;98770.16;5160787;27;20051;-68
2023/01/15 07:07:42;;;;;;;10.45;6.15;;;;;;;0.31;100.00;98781.91;5160346;27;20142;-64
2023/01/15 07:10:10;;;;;;;15.68;6.90;;;;;;;0.34;100.00;98777.81;5160114;27;20050;-68
2023/01/15 07:12:36;;;;;;;23.35;6.95;;;;;;;0.18;100.00;98785.44;5160285;27;20046;-63
2023/01/15 07:15:02;;;;;;;19.77;6.28;;;;;;;0.38;100.00;98774.19;5160410;27;20115;-73
2023/01/15 07:17:29;;;;;;;21.05;4.43;;;;;;;0.16;100.00;98771.47;5160372;27;20073;-68
2023/01/15 07:19:55;;;;;;;13.20;6.65;;;;;;;0.29;100.00;98780.63;5160085;27;20070;-68
2023/01/15 07:22:21;;;;;;;22.13;5.80;;;;;;;0.20;100.00;98777.84;5160354;27;20053;-65
2023/01/15 07:24:48;;;;;;;14.48;5.57;;;;;;;0.01;100.00;98788.81;5159985;27;20408;-64
2023/01/15 07:27:15;;;;;;;28.33;5.03;;;;;;;0.05;100.00;98786.28;5160407;27;20047;-68
2023/01/15 07:29:41;;;;;;;13.93;5.32;;;;;;;0.05;100.00;98784.41;5159834;27;20046;-69
2023/01/15 07:32:07;;;;;;;12.05;5.93;;;;;;;0.21;100.00;98774.06;5160400;27;20078;-70
2023/01/15 07:34:33;;;;;;;22.35;4.50;;;;;;;0.16;100.00;98783.03;5159830;27;20070;-66
2023/01/15 07:37:00;;;;;;;10.73;6.22;;;;;;;0.69;100.00;98768.00;5159848;27;20053;-70
2023/01/15 07:39:27;;;;;;;10.48;6.15;;;;;;;0.55;100.00;98795.06;5159786;27;20065;-64
2023/01/15 07:50:11;;;;;;;5.03;3.53;;;;;;;-0.05;100.00;98811.56;5160135;27;20089;-65
2023/01/15 07:52:37;;;;;;;11.10;4.65;;;;;;;0.02;100.00;98800.38;5159525;27;20042;-65
2023/01/15 07:55:04;;;;;;;14.93;5.00;;;;;;;-0.01;100.00;98793.69;5159698;27;20046;-72
2023/01/15 07:57:31;;;;;;;26.45;5.63;;;;;;;-0.04;100.00;98784.31;5159239;27;20055;-67
2023/01/15 07:59:57;;;;;;;10.38;4.32;;;;;;;-0.10;100.00;98774.78;5159543;27;20122;-68
2023/01/15 08:02:23;;;;;;;13.13;6.63;;;;;;;-0.05;100.00;98761.16;5159721;27;20349;-68
2023/01/15 08:04:50;;;;;;;17.88;5.47;;;;;;;-0.06;100.00;98773.06;5159361;27;20049;-69
2023/01/15 08:07:16;;;;;;;12.27;4.10;;;;;;;-0.09;100.00;98770.97;5159657;27;20133;-68
2023/01/15 08:09:42;;;;;;;14.35;5.68;;;;;;;-0.09;100.00;98762.88;5159170;27;20055;-68
2023/01/15 08:15:13;;;;;;;13.23;4.90;;;;;;;-0.03;100.00;98764.38;5159332;27;20454;-66
2023/01/15 08:17:41;;;;;;;13.68;6.82;;;;;;;0.02;100.00;98752.66;5159098;27;20051;-65
2023/01/15 08:20:10;;;;;;;26.13;6.32;;;;;;;0.18;100.00;98720.75;5159225;27;20449;-71
2023/01/15 08:22:37;;;;;;;13.48;6.18;;;;;;;0.16;100.00;98714.88;5159111;27;20047;-68
2023/01/15 08:25:05;;;;;;;28.10;5.53;;;;;;;0.17;100.00;98709.19;5159465;27;20051;-66
2023/01/15 08:27:34;;;;;;;6.93;3.97;;;;;;;-0.04;100.00;98698.06;5159007;27;20137;-71
2023/01/15 08:30:00;;;;;;;11.48;3.95;;;;;;;-0.04;100.00;98700.78;5159260;27;20099;-72
2023/01/15 08:32:27;;;;;;;20.15;5.72;;;;;;;0.11;100.00;98696.94;5158908;27;20046;-66
2023/01/15 08:34:53;;;;;;;21.52;4.18;;;;;;;-0.10;100.00;98701.19;5159390;27;20138;-70
2023/01/15 08:37:19;;;;;;;15.25;5.65;;;;;;;-0.02;100.00;98698.56;5158881;27;20050;-66
2023/01/15 08:39:45;;;;;;;38.05;6.25;;;;;;;0.09;100.00;98680.25;5159258;27;20342;-71
2023/01/15 08:42:12;;;;;;;29.80;5.93;;;;;;;0.03;100.00;98667.22;5158817;27;20425;-66
2023/01/15 08:44:38;;;;;;;18.13;4.60;;;;;;;0.07;100.00;98660.91;5158992;27;20070;-70
2023/01/15 08:47:05;;;;;;;10.18;4.55;;;;;;;-0.02;100.00;98662.75;5159075;27;20337;-66
2023/01/15 08:49:32;;;;;;;32.28;4.45;;;;;;;-0.02;100.00;98642.00;5158602;27;20047;-69
2023/01/15 08:51:59;;;;;;;18.95;4.80;;;;;;;-0.10;100.00;98640.03;5158838;27;20082;-65
2023/01/15 08:54:26;;;;;;;9.85;5.45;;;;;;;0.01;100.00;98637.09;5158563;27;20096;-66
2023/01/15 08:56:52;;;;;;;12.65;5.97;;;;;;;0.18;100.00;98656.06;5158449;27;20102;-72
2023/01/15 08:59:20;;;;;;;24.85;7.40;;;;;;;0.15;100.00;98652.06;5158465;27;20138;-65
2023/01/15 09:01:49;;;;;;;29.13;5.78;;;;;;;0.12;100.00;98666.16;5158885;27;20068;-68
2023/01/15 09:04:18;;;;;;;14.68;6.38;;;;;;;0.29;100.00;98694.34;5158493;27;20335;-66
2023/01/15 09:06:45;;;;;;;24.98;6.18;;;;;;;0.25;100.00;98726.50;5158722;27;20057;-70
2023/01/15 09:09:12;;;;;;;14.20;5.25;;;;;;;0.36;100.00;98727.03;5157586;27;20137;-64
2023/01/15 09:11:39;;;;;;;17.92;6.22;;;;;;;0.26;100.00;98701.13;5158266;27;20047;-65
2023/01/15 09:14:06;;;;;;;13.80;6.88;;;;;;;0.31;100.00;98686.75;5158479;27;20054;-68
2023/01/15 09:16:32;;;;;;;28.98;6.03;;;;;;;0.30;100.00;98679.75;5158253;27;20062;-70
2023/01/15 09:18:59;;;;;;;9.30;3.83;;;;;;;0.39;100.00;98675.19;5158148;27;20042;-63
2023/01/15 09:21:28;;;;;;;13.38;6.63;;;;;;;0.33;100.00;98662.94;5158127;27;20075;-70
2023/01/15 09:23:54;;;;;;;16.63;5.30;;;;;;;0.31;100.00;98659.78;5158435;27;20301;-66
2023/01/15 09:26:27;;;;;;;18.05;6.95;;;;;;;0.60;100.00;98659.25;5158129;27;20046;-71
2023/01/15 09:28:54;;;;;;;18.58;6.70;;;;;;;0.58;100.00;98653.41;5158466;27;20068;-65
2023/01/15 09:31:23;;;;;;;15.50;6.53;;;;;;;0.83;100.00;98654.59;5157984;27;20176;-65
2023/01/15 09:33:52;;;;;;;17.40;7.05;;;;;;;0.70;100.00;98662.50;5158324;27;20366;-69
2023/01/15 09:36:23;;;;;;;13.68;4.55;;;;;;;0.43;100.00;98668.91;5158277;27;20379;-70
2023/01/15 09:38:50;;;;;;;25.50;5.75;;;;;;;0.33;100.00;98674.53;5157712;27;20342;-72
2023/01/15 09:44:14;;;;;;;17.80;6.53;;;;;;;0.32;100.00;98593.97;5157653;27;20488;-71
2023/01/15 09:46:49;;;;;;;19.33;5.05;;;;;;;0.14;100.00;98569.63;5158259;27;20047;-65
2023/01/15 09:49:27;;;;;;;7.35;4.60;;;;;;;-0.04;100.00;98566.03;5157844;27;20051;-71
2023/01/15 09:52:02;;;;;;;15.68;5.03;;;;;;;-0.09;100.00;98565.41;5157962;27;20131;-64
2023/01/15 09:54:44;;;;;;;27.75;5.85;;;;;;;-0.02;100.00;98542.28;5157609;27;20058;-65
2023/01/15 09:57:11;;;;;;;18.48;7.57;;;;;;;0.21;100.00;98532.22;5157761;27;20335;-72
2023/01/15 09:59:40;;;;;;;45.40;8.38;;;;;;;0.33;100.00;98533.53;5157931;27;20051;-68
2023/01/15 10:02:19;;;;;;;10.90;5.32;;;;;;;0.05;100.00;98524.88;5157355;27;20061;-71
2023/01/15 10:04:50;;;;;;;11.73;5.00;;;;;;;0.14;100.00;98513.03;5157864;27;20047;-70
2023/01/15 10:07:25;;;;;;;20.95;5.68;;;;;;;-0.08;100.00;98511.19;5157488;27;20051;-65
2023/01/15 10:09:58;;;;;;;28.48;7.00;;;;;;;0.07;100.00;98510.00;5157762;27;20060;-66
2023/01/15 10:12:35;;;;;;;26.00;6.88;;;;;;;0.18;100.00;98511.28;5157490;27;20111;-70
2023/01/15 10:15:14;;;;;;;18.67;7.65;;;;;;;0.24;100.00;98520.03;5157271;27;20047;-68
2023/01/15 10:17:45;;;;;;;26.42;7.95;;;;;;;0.24;100.00;98520.03;5157477;27;20123;-66
2023/01/15 10:20:38;;;;;;;34.38;8.35;;;;;;;0.20;100.00;98514.47;5160191;27;20122;-68
2023/01/15 10:23:20;;;;;;;38.85;10.63;;;;;;;0.29;100.00;98522.56;5160601;27;20057;-70
2023/01/15 10:25:49;;;;;;;29.15;8.15;;;;;;;0.47;100.00;98521.53;5161104;27;20129;-71
2023/01/15 10:28:21;;;;;;;27.02;7.97;;;;;;;0.28;100.00;98522.91;5160566;27;20153;-71
2023/01/15 10:30:54;;;;;;;22.23;7.57;;;;;;;0.19;100.00;98518.25;5161104;27;20107;-68
2023/01/15 10:33:40;;;;;;;24.45;8.13;;;;;;;0.35;100.00;98507.84;5160586;27;20047;-68
2023/01/15 10:36:12;;;;;;;65.32;6.88;;;;;;;0.12;100.00;98511.75;5161165;27;20046;-65
2023/01/15 10:38:46;;;;;;;26.30;8.23;;;;;;;0.25;100.00;98507.34;5160468;27;20323;-68
2023/01/15 10:41:29;;;;;;;11.50;6.90;;;;;;;0.11;100.00;98504.78;5160986;27;20395;-65
2023/01/15 10:44:03;;;;;;;18.42;6.53;;;;;;;0.22;100.00;98489.88;5160502;27;20395;-64
2023/01/15 10:46:32;;;;;;;;;;;;;;;0.53;100.00;98484.41;5160932;27;20114;-71
2023/01/15 10:49:05;;;;;;;18.88;8.50;;;;;;;0.41;100.00;98471.53;5160911;27;20187;-67
2023/01/15 10:51:38;;;;;;;18.67;7.63;;;;;;;0.47;100.00;98469.50;5160609;27;20051;-71
2023/01/15 10:54:13;;;;;;;26.70;8.27;;;;;;;0.70;100.00;98462.06;5160953;27;20133;-64
2023/01/15 10:56:46;;;;;;;26.80;8.80;;;;;;;0.67;100.00;98463.50;5160435;27;20094;-71
2023/01/15 10:59:20;;;;;;;11.00;5.78;;;;;;;0.47;100.00;98456.03;5160942;27;20408;-71
2023/01/15 11:01:50;;;;;;;19.58;7.40;;;;;;;0.61;100.00;98445.88;5160467;27;20069;-69
2023/01/15 11:04:16;;;;;;;13.85;5.65;;;;;;;0.40;100.00;98437.59;5160373;27;20430;-65
2023/01/15 11:06:43;;;;;;;22.30;7.35;;;;;;;0.39;100.00;98422.50;5160433;27;20046;-73
2023/01/15 11:09:19;;;;;;;12.65;7.03;;;;;;;0.43;100.00;98422.69;5160234;27;20050;-69
2023/01/15 11:20:05;;;;;;;46.85;9.82;;;;;;;0.76;100.00;98379.06;5160267;27;20137;-65
2023/01/15 11:22:37;;;;;;;18.02;8.65;;;;;;;0.75;100.00;98382.88;5160279;27;20057;-69
2023/01/15 11:25:06;;;;;;;15.93;7.30;;;;;;;0.61;100.00;98385.75;5160428;27;20047;-71
2023/01/15 11:27:34;;;;;;;17.30;8.68;;;;;;;0.70;100.00;98378.44;5160142;27;20078;-71
2023/01/15 11:30:04;;;;;;;11.10;6.28;;;;;;;0.61;100.00;98367.66;5159848;27;20051;-64
2023/01/15 11:32:33;;;;;;;16.70;7.13;;;;;;;0.63;100.00;98364.63;5159517;27;20093;-70
2023/01/15 11:35:00;;;;;;;10.18;6.35;;;;;;;0.61;100.00;98361.47;5160362;27;20046;-64
2023/01/15 11:37:28;;;;;;;14.27;7.10;;;;;;;0.57;100.00;98360.50;5159814;27;20050;-72
2023/01/15 11:39:56;;;;;;;15.55;6.45;;;;;;;0.47;100.00;98362.41;5159731;27;20047;-68
2023/01/15 11:50:53;;;;;;;15.55;6.63;;;;;;;0.68;100.00;98348.28;5116630;27;20435;-69
2023/01/15 11:53:22;;;;;;;15.82;8.48;;;;;;;0.74;100.00;98338.91;5160067;27;20046;-67
2023/01/15 11:55:54;;;;;;;14.10;7.25;;;;;;;0.65;100.00;98349.69;5159483;27;20051;-66
2023/01/15 11:58:23;;;;;;;20.63;8.18;;;;;;;0.66;100.00;98335.09;5159388;27;20134;-64
2023/01/15 12:00:53;;;;;;;11.52;7.35;;;;;;;0.75;100.00;98347.78;5159736;27;20187;-64
2023/01/15 12:03:22;;;;;;;21.98;9.48;;;;;;;0.70;100.00;98336.06;5159363;27;20046;-68
2023/01/15 12:05:55;;;;;;;22.30;10.23;;;;;;;0.65;100.00;98330.03;5159628;27;20054;-71
2023/01/15 12:08:36;;;;;;;20.42;6.95;;;;;;;0.65;100.00;98328.13;5159407;27;20050;-69
2023/01/15 12:11:13;;;;;;;14.73;8.18;;;;;;;0.73;100.00;98328.44;5159634;27;20133;-68
2023/01/15 12:13:50;;;;;;;17.42;9.02;;;;;;;0.81;100.00;98328.41;5159211;27;20085;-71
2023/01/15 12:16:27;;;;;;;10.95;6.97;;;;;;;0.68;100.00;98310.50;5159473;27;20056;-68